sensor_id;sensor_type;location;lat;lon;timestamp;P1;durP1;ratioP1;P2;durP2;ratioP2
21959;SDS011;11144;43.030;25.108;2024-03-08T00:01:27;2.78;;;1.52;;
21959;SDS011;11144;43.030;25.108;2024-03-08T00:03:00;1.60;;;1.13;;
21959;SDS011;11144;43.030;25.108;2024-03-08T00:04:34;2.00;;;1.00;;
21959;SDS011;11144;43.030;25.108;2024-03-08T00:06:09;2.50;;;1.13;;
21959;SDS011;11144;43.030;25.108;2024-03-08T00:07:42;1.13;;;0.77;;
21959;SDS011;11144;43.030;25.108;2024-03-08T00:09:15;4.50;;;0.90;;
21959;SDS011;11144;43.030;25.108;2024-03-08T00:10:48;1.42;;;0.88;;
21959;SDS011;11144;43.030;25.108;2024-03-08T00:12:21;2.58;;;1.30;;
21959;SDS011;11144;43.030;25.108;2024-03-08T00:13:54;1.48;;;1.02;;
21959;SDS011;11144;43.030;25.108;2024-03-08T00:15:27;1.73;;;0.98;;
21959;SDS011;11144;43.030;25.108;2024-03-08T00:17:01;4.63;;;1.40;;
21959;SDS011;11144;43.030;25.108;2024-03-08T00:18:35;4.05;;;1.98;;
21959;SDS011;11144;43.030;25.108;2024-03-08T00:20:08;3.53;;;1.67;;
21959;SDS011;11144;43.030;25.108;2024-03-08T00:21:43;2.13;;;0.88;;
21959;SDS011;11144;43.030;25.108;2024-03-08T00:23:16;1.85;;;0.95;;
21959;SDS011;11144;43.030;25.108;2024-03-08T00:24:50;2.72;;;1.08;;
21959;SDS011;11144;43.030;25.108;2024-03-08T00:26:23;2.75;;;1.50;;
21959;SDS011;11144;43.030;25.108;2024-03-08T00:27:56;4.32;;;1.88;;
21959;SDS011;11144;43.030;25.108;2024-03-08T00:29:29;3.30;;;1.42;;
21959;SDS011;11144;43.030;25.108;2024-03-08T00:31:02;3.17;;;1.80;;
21959;SDS011;11144;43.030;25.108;2024-03-08T00:32:35;3.47;;;1.58;;
21959;SDS011;11144;43.030;25.108;2024-03-08T00:34:09;2.88;;;1.52;;
21959;SDS011;11144;43.030;25.108;2024-03-08T00:35:43;3.70;;;1.38;;
21959;SDS011;11144;43.030;25.108;2024-03-08T00:37:18;2.78;;;1.58;;
21959;SDS011;11144;43.030;25.108;2024-03-08T00:38:51;3.53;;;1.10;;
21959;SDS011;11144;43.030;25.108;2024-03-08T00:40:24;3.35;;;1.35;;
21959;SDS011;11144;43.030;25.108;2024-03-08T00:41:56;2.13;;;1.10;;
21959;SDS011;11144;43.030;25.108;2024-03-08T00:43:30;3.35;;;1.30;;
21959;SDS011;11144;43.030;25.108;2024-03-08T00:45:02;5.00;;;2.15;;
21959;SDS011;11144;43.030;25.108;2024-03-08T00:46:36;3.67;;;1.63;;
21959;SDS011;11144;43.030;25.108;2024-03-08T00:48:10;3.88;;;2.10;;
21959;SDS011;11144;43.030;25.108;2024-03-08T00:49:42;9.23;;;3.20;;
21959;SDS011;11144;43.030;25.108;2024-03-08T00:51:16;4.78;;;2.53;;
21959;SDS011;11144;43.030;25.108;2024-03-08T00:52:50;4.95;;;2.40;;
21959;SDS011;11144;43.030;25.108;2024-03-08T00:54:23;4.88;;;1.65;;
21959;SDS011;11144;43.030;25.108;2024-03-08T00:55:55;4.13;;;1.63;;
21959;SDS011;11144;43.030;25.108;2024-03-08T00:57:29;4.28;;;2.00;;
21959;SDS011;11144;43.030;25.108;2024-03-08T00:59:02;3.80;;;2.17;;
21959;SDS011;11144;43.030;25.108;2024-03-08T01:00:35;6.38;;;1.88;;
21959;SDS011;11144;43.030;25.108;2024-03-08T01:02:09;3.65;;;1.50;;
21959;SDS011;11144;43.030;25.108;2024-03-08T01:03:43;3.75;;;1.73;;
21959;SDS011;11144;43.030;25.108;2024-03-08T01:05:16;2.80;;;1.10;;
21959;SDS011;11144;43.030;25.108;2024-03-08T01:06:49;2.17;;;1.30;;
21959;SDS011;11144;43.030;25.108;2024-03-08T01:08:24;1.38;;;0.60;;
21959;SDS011;11144;43.030;25.108;2024-03-08T01:09:56;1.65;;;0.82;;
21959;SDS011;11144;43.030;25.108;2024-03-08T01:11:30;1.67;;;0.85;;
21959;SDS011;11144;43.030;25.108;2024-03-08T01:13:02;1.35;;;0.90;;
21959;SDS011;11144;43.030;25.108;2024-03-08T01:14:36;2.95;;;1.27;;
21959;SDS011;11144;43.030;25.108;2024-03-08T01:16:09;2.58;;;1.40;;
21959;SDS011;11144;43.030;25.108;2024-03-08T01:17:47;2.83;;;1.35;;
21959;SDS011;11144;43.030;25.108;2024-03-08T01:19:20;3.33;;;1.48;;
21959;SDS011;11144;43.030;25.108;2024-03-08T01:20:53;4.57;;;2.00;;
21959;SDS011;11144;43.030;25.108;2024-03-08T01:22:25;4.88;;;1.35;;
21959;SDS011;11144;43.030;25.108;2024-03-08T01:24:01;2.80;;;1.33;;
21959;SDS011;11144;43.030;25.108;2024-03-08T01:25:34;5.22;;;1.92;;
21959;SDS011;11144;43.030;25.108;2024-03-08T01:27:08;1.10;;;0.77;;
21959;SDS011;11144;43.030;25.108;2024-03-08T01:28:41;1.58;;;0.90;;
21959;SDS011;11144;43.030;25.108;2024-03-08T01:30:15;1.35;;;0.80;;
21959;SDS011;11144;43.030;25.108;2024-03-08T01:31:49;1.10;;;0.70;;
21959;SDS011;11144;43.030;25.108;2024-03-08T01:33:24;4.10;;;1.20;;
21959;SDS011;11144;43.030;25.108;2024-03-08T01:34:58;8.35;;;1.77;;
21959;SDS011;11144;43.030;25.108;2024-03-08T01:36:31;2.22;;;1.20;;
21959;SDS011;11144;43.030;25.108;2024-03-08T01:38:03;1.65;;;0.98;;
21959;SDS011;11144;43.030;25.108;2024-03-08T01:39:38;1.67;;;0.85;;
21959;SDS011;11144;43.030;25.108;2024-03-08T01:41:11;1.17;;;0.73;;
21959;SDS011;11144;43.030;25.108;2024-03-08T01:42:45;2.17;;;1.00;;
21959;SDS011;11144;43.030;25.108;2024-03-08T01:44:19;2.97;;;0.75;;
21959;SDS011;11144;43.030;25.108;2024-03-08T01:45:53;1.63;;;0.75;;
21959;SDS011;11144;43.030;25.108;2024-03-08T01:47:27;1.48;;;0.80;;
21959;SDS011;11144;43.030;25.108;2024-03-08T01:49:00;2.67;;;0.70;;
21959;SDS011;11144;43.030;25.108;2024-03-08T01:50:34;1.60;;;0.90;;
21959;SDS011;11144;43.030;25.108;2024-03-08T01:52:08;1.63;;;0.57;;
21959;SDS011;11144;43.030;25.108;2024-03-08T01:53:41;4.43;;;1.70;;
21959;SDS011;11144;43.030;25.108;2024-03-08T01:55:19;3.13;;;1.63;;
21959;SDS011;11144;43.030;25.108;2024-03-08T01:56:51;1.50;;;0.90;;
21959;SDS011;11144;43.030;25.108;2024-03-08T01:58:26;3.30;;;2.10;;
21959;SDS011;11144;43.030;25.108;2024-03-08T02:00:00;4.97;;;2.50;;
21959;SDS011;11144;43.030;25.108;2024-03-08T02:01:37;21.92;;;9.85;;
21959;SDS011;11144;43.030;25.108;2024-03-08T02:03:09;11.77;;;5.45;;
21959;SDS011;11144;43.030;25.108;2024-03-08T02:04:44;5.63;;;3.17;;
21959;SDS011;11144;43.030;25.108;2024-03-08T02:06:17;62.00;;;31.17;;
21959;SDS011;11144;43.030;25.108;2024-03-08T02:07:50;66.35;;;38.80;;
21959;SDS011;11144;43.030;25.108;2024-03-08T02:09:23;20.02;;;10.73;;
21959;SDS011;11144;43.030;25.108;2024-03-08T02:10:58;52.10;;;27.00;;
21959;SDS011;11144;43.030;25.108;2024-03-08T02:12:31;4.25;;;2.13;;
21959;SDS011;11144;43.030;25.108;2024-03-08T02:14:05;3.03;;;1.48;;
21959;SDS011;11144;43.030;25.108;2024-03-08T02:15:52;3.55;;;1.40;;
21959;SDS011;11144;43.030;25.108;2024-03-08T02:17:26;1.65;;;1.00;;
21959;SDS011;11144;43.030;25.108;2024-03-08T02:18:59;1.75;;;1.35;;
21959;SDS011;11144;43.030;25.108;2024-03-08T02:20:34;1.83;;;0.90;;
21959;SDS011;11144;43.030;25.108;2024-03-08T02:22:06;3.03;;;1.13;;
21959;SDS011;11144;43.030;25.108;2024-03-08T02:23:40;2.25;;;1.25;;
21959;SDS011;11144;43.030;25.108;2024-03-08T02:25:13;5.32;;;2.05;;
21959;SDS011;11144;43.030;25.108;2024-03-08T02:26:47;6.07;;;2.92;;
21959;SDS011;11144;43.030;25.108;2024-03-08T02:28:20;9.90;;;4.72;;
21959;SDS011;11144;43.030;25.108;2024-03-08T02:29:54;11.25;;;4.57;;
21959;SDS011;11144;43.030;25.108;2024-03-08T02:31:29;7.53;;;4.00;;
21959;SDS011;11144;43.030;25.108;2024-03-08T02:33:03;7.22;;;3.85;;
21959;SDS011;11144;43.030;25.108;2024-03-08T02:34:35;5.05;;;3.25;;
21959;SDS011;11144;43.030;25.108;2024-03-08T02:36:10;5.50;;;2.45;;
21959;SDS011;11144;43.030;25.108;2024-03-08T02:37:44;5.05;;;1.92;;
21959;SDS011;11144;43.030;25.108;2024-03-08T02:39:19;5.50;;;3.00;;
21959;SDS011;11144;43.030;25.108;2024-03-08T02:40:52;5.70;;;2.47;;
21959;SDS011;11144;43.030;25.108;2024-03-08T02:42:26;7.97;;;3.60;;
21959;SDS011;11144;43.030;25.108;2024-03-08T02:43:59;4.68;;;2.67;;
21959;SDS011;11144;43.030;25.108;2024-03-08T02:45:32;5.10;;;2.35;;
21959;SDS011;11144;43.030;25.108;2024-03-08T02:47:05;3.65;;;2.17;;
21959;SDS011;11144;43.030;25.108;2024-03-08T02:48:38;7.00;;;3.17;;
21959;SDS011;11144;43.030;25.108;2024-03-08T02:50:12;4.82;;;1.40;;
21959;SDS011;11144;43.030;25.108;2024-03-08T02:51:49;4.20;;;3.20;;
21959;SDS011;11144;43.030;25.108;2024-03-08T02:53:22;2.85;;;1.40;;
21959;SDS011;11144;43.030;25.108;2024-03-08T02:54:56;2.92;;;1.73;;
21959;SDS011;11144;43.030;25.108;2024-03-08T02:56:29;4.00;;;2.22;;
21959;SDS011;11144;43.030;25.108;2024-03-08T02:58:02;3.95;;;2.63;;
21959;SDS011;11144;43.030;25.108;2024-03-08T02:59:36;3.83;;;3.03;;
21959;SDS011;11144;43.030;25.108;2024-03-08T03:01:12;3.85;;;2.65;;
21959;SDS011;11144;43.030;25.108;2024-03-08T03:02:46;3.03;;;2.00;;
21959;SDS011;11144;43.030;25.108;2024-03-08T03:04:18;2.92;;;2.10;;
21959;SDS011;11144;43.030;25.108;2024-03-08T03:05:51;3.28;;;1.33;;
21959;SDS011;11144;43.030;25.108;2024-03-08T03:07:28;2.50;;;1.60;;
21959;SDS011;11144;43.030;25.108;2024-03-08T03:09:01;3.75;;;2.55;;
21959;SDS011;11144;43.030;25.108;2024-03-08T03:10:37;2.47;;;1.48;;
21959;SDS011;11144;43.030;25.108;2024-03-08T03:12:10;2.40;;;1.10;;
21959;SDS011;11144;43.030;25.108;2024-03-08T03:13:43;4.47;;;2.55;;
21959;SDS011;11144;43.030;25.108;2024-03-08T03:15:20;2.30;;;1.40;;
21959;SDS011;11144;43.030;25.108;2024-03-08T03:16:58;4.63;;;2.78;;
21959;SDS011;11144;43.030;25.108;2024-03-08T03:18:30;7.35;;;3.80;;
21959;SDS011;11144;43.030;25.108;2024-03-08T03:20:05;6.18;;;2.65;;
21959;SDS011;11144;43.030;25.108;2024-03-08T03:21:45;4.07;;;2.08;;
21959;SDS011;11144;43.030;25.108;2024-03-08T03:23:20;5.05;;;2.25;;
21959;SDS011;11144;43.030;25.108;2024-03-08T03:24:52;2.60;;;1.60;;
21959;SDS011;11144;43.030;25.108;2024-03-08T03:26:26;1.90;;;1.13;;
21959;SDS011;11144;43.030;25.108;2024-03-08T03:27:58;2.50;;;1.50;;
21959;SDS011;11144;43.030;25.108;2024-03-08T03:29:32;3.22;;;1.90;;
21959;SDS011;11144;43.030;25.108;2024-03-08T03:31:05;5.07;;;2.55;;
21959;SDS011;11144;43.030;25.108;2024-03-08T03:32:41;3.40;;;2.30;;
21959;SDS011;11144;43.030;25.108;2024-03-08T03:34:18;2.92;;;1.80;;
21959;SDS011;11144;43.030;25.108;2024-03-08T03:35:52;3.33;;;2.33;;
21959;SDS011;11144;43.030;25.108;2024-03-08T03:37:24;5.72;;;2.38;;
21959;SDS011;11144;43.030;25.108;2024-03-08T03:38:59;3.13;;;2.20;;
21959;SDS011;11144;43.030;25.108;2024-03-08T03:40:37;4.00;;;2.42;;
21959;SDS011;11144;43.030;25.108;2024-03-08T03:42:12;4.03;;;2.50;;
21959;SDS011;11144;43.030;25.108;2024-03-08T03:43:44;4.60;;;2.78;;
21959;SDS011;11144;43.030;25.108;2024-03-08T03:45:18;5.22;;;2.70;;
21959;SDS011;11144;43.030;25.108;2024-03-08T03:46:51;5.72;;;3.20;;
21959;SDS011;11144;43.030;25.108;2024-03-08T03:48:25;4.97;;;3.20;;
21959;SDS011;11144;43.030;25.108;2024-03-08T03:49:57;8.55;;;3.78;;
21959;SDS011;11144;43.030;25.108;2024-03-08T03:51:33;6.40;;;3.30;;
21959;SDS011;11144;43.030;25.108;2024-03-08T03:53:06;4.90;;;3.00;;
21959;SDS011;11144;43.030;25.108;2024-03-08T03:54:43;8.35;;;3.72;;
21959;SDS011;11144;43.030;25.108;2024-03-08T03:56:15;5.80;;;3.55;;
21959;SDS011;11144;43.030;25.108;2024-03-08T03:57:49;5.20;;;3.13;;
21959;SDS011;11144;43.030;25.108;2024-03-08T03:59:21;6.07;;;3.55;;
21959;SDS011;11144;43.030;25.108;2024-03-08T04:00:56;6.60;;;3.47;;
21959;SDS011;11144;43.030;25.108;2024-03-08T04:02:28;6.72;;;3.90;;
21959;SDS011;11144;43.030;25.108;2024-03-08T04:04:01;10.23;;;4.30;;
21959;SDS011;11144;43.030;25.108;2024-03-08T04:05:34;6.30;;;3.25;;
21959;SDS011;11144;43.030;25.108;2024-03-08T04:07:08;6.30;;;3.10;;
21959;SDS011;11144;43.030;25.108;2024-03-08T04:08:42;7.25;;;3.75;;
21959;SDS011;11144;43.030;25.108;2024-03-08T04:10:17;9.68;;;4.43;;
21959;SDS011;11144;43.030;25.108;2024-03-08T04:11:49;8.25;;;4.28;;
21959;SDS011;11144;43.030;25.108;2024-03-08T04:13:24;8.43;;;4.18;;
21959;SDS011;11144;43.030;25.108;2024-03-08T04:14:58;6.65;;;3.53;;
21959;SDS011;11144;43.030;25.108;2024-03-08T04:16:31;7.53;;;3.95;;
21959;SDS011;11144;43.030;25.108;2024-03-08T04:18:04;6.55;;;3.97;;
21959;SDS011;11144;43.030;25.108;2024-03-08T04:19:38;5.75;;;3.50;;
21959;SDS011;11144;43.030;25.108;2024-03-08T04:21:11;9.18;;;5.32;;
21959;SDS011;11144;43.030;25.108;2024-03-08T04:22:44;9.52;;;3.97;;
21959;SDS011;11144;43.030;25.108;2024-03-08T04:24:18;9.57;;;4.75;;
21959;SDS011;11144;43.030;25.108;2024-03-08T04:25:53;10.50;;;5.13;;
21959;SDS011;11144;43.030;25.108;2024-03-08T04:27:25;9.02;;;4.95;;
21959;SDS011;11144;43.030;25.108;2024-03-08T04:28:59;10.45;;;6.05;;
21959;SDS011;11144;43.030;25.108;2024-03-08T04:30:31;13.13;;;5.82;;
21959;SDS011;11144;43.030;25.108;2024-03-08T04:32:05;9.70;;;5.60;;
21959;SDS011;11144;43.030;25.108;2024-03-08T04:33:38;10.57;;;6.05;;
21959;SDS011;11144;43.030;25.108;2024-03-08T04:35:12;10.93;;;5.65;;
21959;SDS011;11144;43.030;25.108;2024-03-08T04:36:44;12.45;;;6.43;;
21959;SDS011;11144;43.030;25.108;2024-03-08T04:38:18;12.95;;;7.38;;
21959;SDS011;11144;43.030;25.108;2024-03-08T04:39:51;15.27;;;8.00;;
21959;SDS011;11144;43.030;25.108;2024-03-08T04:41:25;17.30;;;7.90;;
21959;SDS011;11144;43.030;25.108;2024-03-08T04:42:58;19.50;;;9.98;;
21959;SDS011;11144;43.030;25.108;2024-03-08T04:44:31;23.80;;;10.82;;
21959;SDS011;11144;43.030;25.108;2024-03-08T04:46:05;21.65;;;11.18;;
21959;SDS011;11144;43.030;25.108;2024-03-08T04:47:37;19.70;;;10.70;;
21959;SDS011;11144;43.030;25.108;2024-03-08T04:49:11;21.05;;;10.77;;
21959;SDS011;11144;43.030;25.108;2024-03-08T04:50:43;18.90;;;10.23;;
21959;SDS011;11144;43.030;25.108;2024-03-08T04:52:17;18.63;;;10.43;;
21959;SDS011;11144;43.030;25.108;2024-03-08T04:53:49;21.02;;;11.05;;
21959;SDS011;11144;43.030;25.108;2024-03-08T04:55:22;20.08;;;10.98;;
21959;SDS011;11144;43.030;25.108;2024-03-08T04:56:57;22.83;;;11.20;;
21959;SDS011;11144;43.030;25.108;2024-03-08T04:58:32;21.70;;;11.25;;
21959;SDS011;11144;43.030;25.108;2024-03-08T05:00:06;19.65;;;9.80;;
21959;SDS011;11144;43.030;25.108;2024-03-08T05:01:43;21.60;;;11.02;;
21959;SDS011;11144;43.030;25.108;2024-03-08T05:03:16;24.42;;;10.43;;
21959;SDS011;11144;43.030;25.108;2024-03-08T05:04:50;25.42;;;11.07;;
21959;SDS011;11144;43.030;25.108;2024-03-08T05:06:22;18.25;;;10.13;;
21959;SDS011;11144;43.030;25.108;2024-03-08T05:07:55;26.38;;;11.75;;
21959;SDS011;11144;43.030;25.108;2024-03-08T05:09:28;24.10;;;11.77;;
21959;SDS011;11144;43.030;25.108;2024-03-08T05:11:04;19.58;;;9.50;;
21959;SDS011;11144;43.030;25.108;2024-03-08T05:12:40;25.58;;;10.45;;
21959;SDS011;11144;43.030;25.108;2024-03-08T05:14:13;19.13;;;10.93;;
21959;SDS011;11144;43.030;25.108;2024-03-08T05:15:49;21.42;;;9.90;;
21959;SDS011;11144;43.030;25.108;2024-03-08T05:17:23;23.90;;;10.13;;
21959;SDS011;11144;43.030;25.108;2024-03-08T05:18:56;25.85;;;10.40;;
21959;SDS011;11144;43.030;25.108;2024-03-08T05:20:30;16.05;;;8.90;;
21959;SDS011;11144;43.030;25.108;2024-03-08T05:22:03;22.33;;;10.43;;
21959;SDS011;11144;43.030;25.108;2024-03-08T05:23:36;22.45;;;9.80;;
21959;SDS011;11144;43.030;25.108;2024-03-08T05:25:10;25.20;;;9.93;;
21959;SDS011;11144;43.030;25.108;2024-03-08T05:26:44;22.50;;;11.00;;
21959;SDS011;11144;43.030;25.108;2024-03-08T05:28:19;30.85;;;12.68;;
21959;SDS011;11144;43.030;25.108;2024-03-08T05:29:53;25.98;;;11.35;;
21959;SDS011;11144;43.030;25.108;2024-03-08T05:31:29;21.80;;;11.25;;
21959;SDS011;11144;43.030;25.108;2024-03-08T05:33:10;22.02;;;10.85;;
21959;SDS011;11144;43.030;25.108;2024-03-08T05:34:46;23.50;;;10.88;;
21959;SDS011;11144;43.030;25.108;2024-03-08T05:36:19;19.35;;;9.38;;
21959;SDS011;11144;43.030;25.108;2024-03-08T05:37:51;22.02;;;9.48;;
21959;SDS011;11144;43.030;25.108;2024-03-08T05:39:25;22.60;;;9.90;;
21959;SDS011;11144;43.030;25.108;2024-03-08T05:40:57;16.90;;;8.52;;
21959;SDS011;11144;43.030;25.108;2024-03-08T05:42:30;14.77;;;8.70;;
21959;SDS011;11144;43.030;25.108;2024-03-08T05:44:04;17.52;;;8.68;;
21959;SDS011;11144;43.030;25.108;2024-03-08T05:45:38;14.82;;;7.22;;
21959;SDS011;11144;43.030;25.108;2024-03-08T05:47:11;14.82;;;7.80;;
21959;SDS011;11144;43.030;25.108;2024-03-08T05:48:44;14.32;;;8.23;;
21959;SDS011;11144;43.030;25.108;2024-03-08T05:50:17;12.75;;;7.85;;
21959;SDS011;11144;43.030;25.108;2024-03-08T05:51:51;18.52;;;8.93;;
21959;SDS011;11144;43.030;25.108;2024-03-08T05:53:26;14.55;;;7.80;;
21959;SDS011;11144;43.030;25.108;2024-03-08T05:54:58;13.43;;;7.40;;
21959;SDS011;11144;43.030;25.108;2024-03-08T05:56:32;13.20;;;7.35;;
21959;SDS011;11144;43.030;25.108;2024-03-08T05:58:05;14.38;;;7.38;;
21959;SDS011;11144;43.030;25.108;2024-03-08T05:59:41;15.38;;;7.78;;
21959;SDS011;11144;43.030;25.108;2024-03-08T06:01:14;12.65;;;7.63;;
21959;SDS011;11144;43.030;25.108;2024-03-08T06:02:47;16.45;;;7.15;;
21959;SDS011;11144;43.030;25.108;2024-03-08T06:04:20;14.32;;;8.13;;
21959;SDS011;11144;43.030;25.108;2024-03-08T06:05:54;12.55;;;7.75;;
21959;SDS011;11144;43.030;25.108;2024-03-08T06:07:28;15.73;;;7.45;;
21959;SDS011;11144;43.030;25.108;2024-03-08T06:09:01;13.52;;;6.25;;
21959;SDS011;11144;43.030;25.108;2024-03-08T06:10:41;12.18;;;6.93;;
21959;SDS011;11144;43.030;25.108;2024-03-08T06:12:14;11.85;;;7.05;;
21959;SDS011;11144;43.030;25.108;2024-03-08T06:13:50;13.55;;;6.85;;
21959;SDS011;11144;43.030;25.108;2024-03-08T06:15:25;19.02;;;7.78;;
21959;SDS011;11144;43.030;25.108;2024-03-08T06:16:58;14.60;;;7.28;;
21959;SDS011;11144;43.030;25.108;2024-03-08T06:18:32;16.80;;;8.32;;
21959;SDS011;11144;43.030;25.108;2024-03-08T06:20:04;14.82;;;7.72;;
21959;SDS011;11144;43.030;25.108;2024-03-08T06:21:42;13.45;;;7.95;;
21959;SDS011;11144;43.030;25.108;2024-03-08T06:23:16;14.80;;;8.35;;
21959;SDS011;11144;43.030;25.108;2024-03-08T06:24:49;14.98;;;8.18;;
21959;SDS011;11144;43.030;25.108;2024-03-08T06:26:23;14.57;;;8.20;;
21959;SDS011;11144;43.030;25.108;2024-03-08T06:27:58;17.77;;;9.07;;
21959;SDS011;11144;43.030;25.108;2024-03-08T06:29:32;21.88;;;9.32;;
21959;SDS011;11144;43.030;25.108;2024-03-08T06:31:06;15.25;;;7.65;;
21959;SDS011;11144;43.030;25.108;2024-03-08T06:32:39;16.13;;;8.70;;
21959;SDS011;11144;43.030;25.108;2024-03-08T06:34:15;24.27;;;10.15;;
21959;SDS011;11144;43.030;25.108;2024-03-08T06:35:49;18.92;;;10.27;;
21959;SDS011;11144;43.030;25.108;2024-03-08T06:37:22;18.75;;;10.60;;
21959;SDS011;11144;43.030;25.108;2024-03-08T06:38:55;22.33;;;12.45;;
21959;SDS011;11144;43.030;25.108;2024-03-08T06:40:29;22.77;;;12.38;;
21959;SDS011;11144;43.030;25.108;2024-03-08T06:42:02;15.35;;;9.02;;
21959;SDS011;11144;43.030;25.108;2024-03-08T06:43:36;16.55;;;8.23;;
21959;SDS011;11144;43.030;25.108;2024-03-08T06:45:11;15.65;;;9.18;;
21959;SDS011;11144;43.030;25.108;2024-03-08T06:46:46;18.42;;;10.57;;
21959;SDS011;11144;43.030;25.108;2024-03-08T06:48:19;15.60;;;9.23;;
21959;SDS011;11144;43.030;25.108;2024-03-08T06:49:52;14.75;;;8.30;;
21959;SDS011;11144;43.030;25.108;2024-03-08T06:51:25;12.85;;;8.55;;
21959;SDS011;11144;43.030;25.108;2024-03-08T06:52:57;16.90;;;8.50;;
21959;SDS011;11144;43.030;25.108;2024-03-08T06:54:31;14.13;;;8.07;;
21959;SDS011;11144;43.030;25.108;2024-03-08T06:56:04;19.15;;;9.15;;
21959;SDS011;11144;43.030;25.108;2024-03-08T06:57:36;25.23;;;13.52;;
21959;SDS011;11144;43.030;25.108;2024-03-08T06:59:10;19.42;;;9.73;;
21959;SDS011;11144;43.030;25.108;2024-03-08T07:00:44;19.15;;;10.38;;
21959;SDS011;11144;43.030;25.108;2024-03-08T07:02:18;14.63;;;8.63;;
21959;SDS011;11144;43.030;25.108;2024-03-08T07:03:56;17.00;;;9.10;;
21959;SDS011;11144;43.030;25.108;2024-03-08T07:05:28;13.63;;;8.10;;
21959;SDS011;11144;43.030;25.108;2024-03-08T07:07:02;16.13;;;8.15;;
21959;SDS011;11144;43.030;25.108;2024-03-08T07:08:35;17.20;;;9.38;;
21959;SDS011;11144;43.030;25.108;2024-03-08T07:10:08;15.68;;;9.50;;
21959;SDS011;11144;43.030;25.108;2024-03-08T07:11:42;14.52;;;7.70;;
21959;SDS011;11144;43.030;25.108;2024-03-08T07:13:16;13.73;;;6.95;;
21959;SDS011;11144;43.030;25.108;2024-03-08T07:14:48;15.32;;;8.57;;
21959;SDS011;11144;43.030;25.108;2024-03-08T07:16:22;17.15;;;9.48;;
21959;SDS011;11144;43.030;25.108;2024-03-08T07:17:56;22.58;;;11.27;;
21959;SDS011;11144;43.030;25.108;2024-03-08T07:19:31;26.20;;;11.75;;
21959;SDS011;11144;43.030;25.108;2024-03-08T07:21:04;22.42;;;11.23;;
21959;SDS011;11144;43.030;25.108;2024-03-08T07:22:37;17.77;;;10.13;;
21959;SDS011;11144;43.030;25.108;2024-03-08T07:24:10;23.08;;;10.50;;
21959;SDS011;11144;43.030;25.108;2024-03-08T07:25:59;23.33;;;11.23;;
21959;SDS011;11144;43.030;25.108;2024-03-08T07:27:32;26.38;;;13.80;;
21959;SDS011;11144;43.030;25.108;2024-03-08T07:29:07;21.17;;;12.30;;
21959;SDS011;11144;43.030;25.108;2024-03-08T07:30:40;18.08;;;10.52;;
21959;SDS011;11144;43.030;25.108;2024-03-08T07:32:34;18.50;;;11.63;;
21959;SDS011;11144;43.030;25.108;2024-03-08T07:34:08;21.95;;;12.30;;
21959;SDS011;11144;43.030;25.108;2024-03-08T07:35:42;19.20;;;10.57;;
21959;SDS011;11144;43.030;25.108;2024-03-08T07:37:16;17.88;;;10.63;;
21959;SDS011;11144;43.030;25.108;2024-03-08T07:38:50;13.98;;;7.93;;
21959;SDS011;11144;43.030;25.108;2024-03-08T07:40:23;19.98;;;10.10;;
21959;SDS011;11144;43.030;25.108;2024-03-08T07:41:56;17.58;;;10.45;;
21959;SDS011;11144;43.030;25.108;2024-03-08T07:43:28;18.75;;;9.50;;
21959;SDS011;11144;43.030;25.108;2024-03-08T07:45:02;20.20;;;10.50;;
21959;SDS011;11144;43.030;25.108;2024-03-08T07:46:40;18.15;;;10.52;;
21959;SDS011;11144;43.030;25.108;2024-03-08T07:48:13;20.05;;;12.23;;
21959;SDS011;11144;43.030;25.108;2024-03-08T07:49:47;21.23;;;10.90;;
21959;SDS011;11144;43.030;25.108;2024-03-08T07:51:20;20.05;;;10.40;;
21959;SDS011;11144;43.030;25.108;2024-03-08T07:52:53;30.67;;;18.35;;
21959;SDS011;11144;43.030;25.108;2024-03-08T07:54:26;26.50;;;15.02;;
21959;SDS011;11144;43.030;25.108;2024-03-08T07:55:59;28.35;;;15.25;;
21959;SDS011;11144;43.030;25.108;2024-03-08T07:57:32;23.35;;;12.88;;
21959;SDS011;11144;43.030;25.108;2024-03-08T07:59:06;24.60;;;13.20;;
21959;SDS011;11144;43.030;25.108;2024-03-08T08:00:38;24.85;;;13.25;;
21959;SDS011;11144;43.030;25.108;2024-03-08T08:02:15;20.80;;;10.90;;
21959;SDS011;11144;43.030;25.108;2024-03-08T08:03:47;23.95;;;12.40;;
21959;SDS011;11144;43.030;25.108;2024-03-08T08:05:22;28.00;;;14.55;;
21959;SDS011;11144;43.030;25.108;2024-03-08T08:06:56;22.20;;;12.23;;
21959;SDS011;11144;43.030;25.108;2024-03-08T08:08:29;24.35;;;12.60;;
21959;SDS011;11144;43.030;25.108;2024-03-08T08:10:04;22.92;;;11.40;;
21959;SDS011;11144;43.030;25.108;2024-03-08T08:11:38;20.13;;;11.95;;
21959;SDS011;11144;43.030;25.108;2024-03-08T08:13:12;21.17;;;12.10;;
21959;SDS011;11144;43.030;25.108;2024-03-08T08:14:44;22.50;;;11.30;;
21959;SDS011;11144;43.030;25.108;2024-03-08T08:16:18;22.02;;;11.93;;
21959;SDS011;11144;43.030;25.108;2024-03-08T08:17:51;23.05;;;11.18;;
21959;SDS011;11144;43.030;25.108;2024-03-08T08:19:24;21.67;;;11.45;;
21959;SDS011;11144;43.030;25.108;2024-03-08T08:20:59;22.45;;;11.95;;
21959;SDS011;11144;43.030;25.108;2024-03-08T08:22:33;21.60;;;11.38;;
21959;SDS011;11144;43.030;25.108;2024-03-08T08:24:05;24.88;;;13.13;;
21959;SDS011;11144;43.030;25.108;2024-03-08T08:25:39;22.58;;;12.20;;
21959;SDS011;11144;43.030;25.108;2024-03-08T08:27:11;25.25;;;12.32;;
21959;SDS011;11144;43.030;25.108;2024-03-08T08:28:46;26.55;;;13.15;;
21959;SDS011;11144;43.030;25.108;2024-03-08T08:30:19;28.45;;;12.73;;
21959;SDS011;11144;43.030;25.108;2024-03-08T08:31:52;24.40;;;12.30;;
21959;SDS011;11144;43.030;25.108;2024-03-08T08:33:25;25.38;;;12.98;;
21959;SDS011;11144;43.030;25.108;2024-03-08T08:34:59;28.80;;;14.20;;
21959;SDS011;11144;43.030;25.108;2024-03-08T08:36:32;25.08;;;12.68;;
21959;SDS011;11144;43.030;25.108;2024-03-08T08:38:06;29.98;;;15.13;;
21959;SDS011;11144;43.030;25.108;2024-03-08T08:39:40;24.85;;;12.40;;
21959;SDS011;11144;43.030;25.108;2024-03-08T08:41:13;24.70;;;11.93;;
21959;SDS011;11144;43.030;25.108;2024-03-08T08:42:47;24.50;;;13.55;;
21959;SDS011;11144;43.030;25.108;2024-03-08T08:44:21;29.17;;;13.10;;
21959;SDS011;11144;43.030;25.108;2024-03-08T08:45:54;33.55;;;15.23;;
21959;SDS011;11144;43.030;25.108;2024-03-08T08:47:26;35.25;;;17.27;;
21959;SDS011;11144;43.030;25.108;2024-03-08T08:49:00;45.05;;;19.58;;
21959;SDS011;11144;43.030;25.108;2024-03-08T08:50:32;38.83;;;16.90;;
21959;SDS011;11144;43.030;25.108;2024-03-08T08:52:07;28.60;;;15.18;;
21959;SDS011;11144;43.030;25.108;2024-03-08T08:53:47;30.13;;;12.15;;
21959;SDS011;11144;43.030;25.108;2024-03-08T08:55:21;23.70;;;12.85;;
21959;SDS011;11144;43.030;25.108;2024-03-08T08:56:57;30.40;;;14.52;;
21959;SDS011;11144;43.030;25.108;2024-03-08T08:58:31;32.95;;;15.27;;
21959;SDS011;11144;43.030;25.108;2024-03-08T09:00:03;30.20;;;14.43;;
21959;SDS011;11144;43.030;25.108;2024-03-08T09:01:39;33.00;;;16.25;;
21959;SDS011;11144;43.030;25.108;2024-03-08T09:03:12;34.03;;;15.57;;
21959;SDS011;11144;43.030;25.108;2024-03-08T09:04:45;32.10;;;13.82;;
21959;SDS011;11144;43.030;25.108;2024-03-08T09:06:18;33.58;;;16.00;;
21959;SDS011;11144;43.030;25.108;2024-03-08T09:07:53;28.35;;;14.35;;
21959;SDS011;11144;43.030;25.108;2024-03-08T09:09:25;30.88;;;14.15;;
21959;SDS011;11144;43.030;25.108;2024-03-08T09:10:59;37.13;;;16.70;;